sensor_id;sensor_type;location;lat;lon;timestamp;temperature;humidity
37646;DHT22;23489;49.600;6.138;2023-03-05T00:02:17;4.10;99.90
37646;DHT22;23489;49.600;6.138;2023-03-05T00:04:43;4.10;99.90
37646;DHT22;23489;49.600;6.138;2023-03-05T00:07:09;4.00;99.90
37646;DHT22;23489;49.600;6.138;2023-03-05T00:09:37;4.00;99.90
37646;DHT22;23489;49.600;6.138;2023-03-05T00:12:03;4.10;99.90
37646;DHT22;23489;49.600;6.138;2023-03-05T00:14:28;4.00;99.90
37646;DHT22;23489;49.600;6.138;2023-03-05T00:16:54;4.00;99.90
37646;DHT22;23489;49.600;6.138;2023-03-05T00:19:19;4.10;99.90
37646;DHT22;23489;49.600;6.138;2023-03-05T00:21:45;4.10;99.90
37646;DHT22;23489;49.600;6.138;2023-03-05T00:24:17;4.10;99.90
37646;DHT22;23489;49.600;6.138;2023-03-05T00:26:43;4.10;99.90
37646;DHT22;23489;49.600;6.138;2023-03-05T00:29:13;4.10;99.90
37646;DHT22;23489;49.600;6.138;2023-03-05T00:31:43;4.10;99.90
37646;DHT22;23489;49.600;6.138;2023-03-05T00:34:12;4.10;99.90
37646;DHT22;23489;49.600;6.138;2023-03-05T00:36:40;4.10;99.90
37646;DHT22;23489;49.600;6.138;2023-03-05T00:39:05;4.10;99.90
37646;DHT22;23489;49.600;6.138;2023-03-05T00:41:32;4.10;99.90
37646;DHT22;23489;49.600;6.138;2023-03-05T00:43:57;4.10;99.90
37646;DHT22;23489;49.600;6.138;2023-03-05T00:46:23;4.10;99.90
37646;DHT22;23489;49.600;6.138;2023-03-05T00:48:52;4.10;99.90
37646;DHT22;23489;49.600;6.138;2023-03-05T00:51:18;4.10;99.90
37646;DHT22;23489;49.600;6.138;2023-03-05T00:53:43;4.10;99.90
37646;DHT22;23489;49.600;6.138;2023-03-05T00:56:09;4.00;99.90
37646;DHT22;23489;49.600;6.138;2023-03-05T00:58:36;4.00;99.90
37646;DHT22;23489;49.600;6.138;2023-03-05T01:01:03;4.00;99.90
37646;DHT22;23489;49.600;6.138;2023-03-05T01:03:30;4.00;99.90
37646;DHT22;23489;49.600;6.138;2023-03-05T01:05:56;4.00;99.90
37646;DHT22;23489;49.600;6.138;2023-03-05T01:08:23;4.00;99.90
37646;DHT22;23489;49.600;6.138;2023-03-05T01:10:49;4.00;99.90
37646;DHT22;23489;49.600;6.138;2023-03-05T01:13:15;4.00;99.90
37646;DHT22;23489;49.600;6.138;2023-03-05T01:15:41;4.00;99.90
37646;DHT22;23489;49.600;6.138;2023-03-05T01:18:06;4.00;99.90
37646;DHT22;23489;49.600;6.138;2023-03-05T01:20:32;4.00;99.90
37646;DHT22;23489;49.600;6.138;2023-03-05T01:22:59;4.00;99.90
37646;DHT22;23489;49.600;6.138;2023-03-05T01:25:26;4.00;99.90
37646;DHT22;23489;49.600;6.138;2023-03-05T01:27:52;4.00;99.90
37646;DHT22;23489;49.600;6.138;2023-03-05T01:30:18;4.00;99.90
37646;DHT22;23489;49.600;6.138;2023-03-05T01:32:44;4.00;99.90
37646;DHT22;23489;49.600;6.138;2023-03-05T01:35:15;4.00;99.90
37646;DHT22;23489;49.600;6.138;2023-03-05T01:37:41;4.00;99.90
37646;DHT22;23489;49.600;6.138;2023-03-05T01:40:08;4.00;99.90
37646;DHT22;23489;49.600;6.138;2023-03-05T01:42:34;4.00;99.90
37646;DHT22;23489;49.600;6.138;2023-03-05T01:45:03;4.00;99.90
37646;DHT22;23489;49.600;6.138;2023-03-05T01:47:29;4.00;99.90
37646;DHT22;23489;49.600;6.138;2023-03-05T01:49:55;4.00;99.90
37646;DHT22;23489;49.600;6.138;2023-03-05T01:52:22;4.00;99.90
37646;DHT22;23489;49.600;6.138;2023-03-05T01:55:00;4.00;99.90
37646;DHT22;23489;49.600;6.138;2023-03-05T01:57:36;4.00;99.90
37646;DHT22;23489;49.600;6.138;2023-03-05T02:00:11;4.00;99.90
37646;DHT22;23489;49.600;6.138;2023-03-05T02:02:42;4.00;99.90
37646;DHT22;23489;49.600;6.138;2023-03-05T02:05:18;4.00;99.90
37646;DHT22;23489;49.600;6.138;2023-03-05T02:07:45;4.00;99.90
37646;DHT22;23489;49.600;6.138;2023-03-05T02:10:35;3.90;99.90
37646;DHT22;23489;49.600;6.138;2023-03-05T02:13:04;3.90;99.90
37646;DHT22;23489;49.600;6.138;2023-03-05T02:15:31;3.90;99.90
37646;DHT22;23489;49.600;6.138;2023-03-05T02:17:57;3.90;99.90
37646;DHT22;23489;49.600;6.138;2023-03-05T02:20:29;3.90;99.90
37646;DHT22;23489;49.600;6.138;2023-03-05T02:22:56;3.90;99.90
37646;DHT22;23489;49.600;6.138;2023-03-05T02:25:28;3.90;99.90
37646;DHT22;23489;49.600;6.138;2023-03-05T02:28:03;3.90;99.90
37646;DHT22;23489;49.600;6.138;2023-03-05T02:30:31;3.90;99.90
37646;DHT22;23489;49.600;6.138;2023-03-05T02:32:57;3.90;99.90
37646;DHT22;23489;49.600;6.138;2023-03-05T02:35:24;3.90;99.90
37646;DHT22;23489;49.600;6.138;2023-03-05T02:37:50;3.90;99.90
37646;DHT22;23489;49.600;6.138;2023-03-05T02:40:16;3.90;99.90
37646;DHT22;23489;49.600;6.138;2023-03-05T02:42:42;3.80;99.90
37646;DHT22;23489;49.600;6.138;2023-03-05T02:45:10;3.80;99.90
37646;DHT22;23489;49.600;6.138;2023-03-05T02:47:36;3.80;99.90
37646;DHT22;23489;49.600;6.138;2023-03-05T02:50:03;3.80;99.90
37646;DHT22;23489;49.600;6.138;2023-03-05T02:52:28;3.80;99.90
37646;DHT22;23489;49.600;6.138;2023-03-05T02:54:55;3.80;99.90
37646;DHT22;23489;49.600;6.138;2023-03-05T02:57:22;3.80;99.90
37646;DHT22;23489;49.600;6.138;2023-03-05T02:59:48;3.80;99.90
37646;DHT22;23489;49.600;6.138;2023-03-05T03:02:14;3.80;99.90
37646;DHT22;23489;49.600;6.138;2023-03-05T03:04:42;3.80;99.90
37646;DHT22;23489;49.600;6.138;2023-03-05T03:07:09;3.80;99.90
37646;DHT22;23489;49.600;6.138;2023-03-05T03:09:35;3.80;99.90
37646;DHT22;23489;49.600;6.138;2023-03-05T03:12:01;3.80;99.90
37646;DHT22;23489;49.600;6.138;2023-03-05T03:14:33;3.80;99.90
37646;DHT22;23489;49.600;6.138;2023-03-05T03:17:10;3.80;99.90
37646;DHT22;23489;49.600;6.138;2023-03-05T03:19:36;3.80;99.90
37646;DHT22;23489;49.600;6.138;2023-03-05T03:22:03;3.80;99.90
37646;DHT22;23489;49.600;6.138;2023-03-05T03:24:29;3.80;99.90
37646;DHT22;23489;49.600;6.138;2023-03-05T03:26:55;3.80;99.90
37646;DHT22;23489;49.600;6.138;2023-03-05T03:29:21;3.80;99.90
37646;DHT22;23489;49.600;6.138;2023-03-05T03:31:46;3.80;99.90
37646;DHT22;23489;49.600;6.138;2023-03-05T03:34:13;3.80;99.90
37646;DHT22;23489;49.600;6.138;2023-03-05T03:36:41;3.80;99.90
37646;DHT22;23489;49.600;6.138;2023-03-05T03:39:07;3.80;99.90
37646;DHT22;23489;49.600;6.138;2023-03-05T03:41:35;3.80;99.90
37646;DHT22;23489;49.600;6.138;2023-03-05T03:44:01;3.80;99.90
37646;DHT22;23489;49.600;6.138;2023-03-05T03:46:28;3.80;99.90
37646;DHT22;23489;49.600;6.138;2023-03-05T03:48:53;3.80;99.90
37646;DHT22;23489;49.600;6.138;2023-03-05T03:51:19;3.80;99.90
37646;DHT22;23489;49.600;6.138;2023-03-05T03:53:45;3.70;99.90
37646;DHT22;23489;49.600;6.138;2023-03-05T03:56:10;3.70;99.90
37646;DHT22;23489;49.600;6.138;2023-03-05T03:58:36;3.70;99.90
37646;DHT22;23489;49.600;6.138;2023-03-05T04:01:01;3.70;99.90
37646;DHT22;23489;49.600;6.138;2023-03-05T04:03:27;3.70;99.90
37646;DHT22;23489;49.600;6.138;2023-03-05T04:05:53;3.70;99.90
37646;DHT22;23489;49.600;6.138;2023-03-05T04:08:18;3.70;99.90
37646;DHT22;23489;49.600;6.138;2023-03-05T04:10:44;3.70;99.90
37646;DHT22;23489;49.600;6.138;2023-03-05T04:13:09;3.70;99.90
37646;DHT22;23489;49.600;6.138;2023-03-05T04:15:35;3.70;99.90
37646;DHT22;23489;49.600;6.138;2023-03-05T04:18:01;3.70;99.90
37646;DHT22;23489;49.600;6.138;2023-03-05T04:20:26;3.70;99.90
37646;DHT22;23489;49.600;6.138;2023-03-05T04:22:52;3.70;99.90
37646;DHT22;23489;49.600;6.138;2023-03-05T04:25:18;3.70;99.90
37646;DHT22;23489;49.600;6.138;2023-03-05T04:27:43;3.70;99.90
37646;DHT22;23489;49.600;6.138;2023-03-05T04:30:12;3.70;99.90
37646;DHT22;23489;49.600;6.138;2023-03-05T04:32:39;3.70;99.90
37646;DHT22;23489;49.600;6.138;2023-03-05T04:35:05;3.70;99.90
37646;DHT22;23489;49.600;6.138;2023-03-05T04:37:31;3.70;99.90
37646;DHT22;23489;49.600;6.138;2023-03-05T04:39:57;3.70;99.90
37646;DHT22;23489;49.600;6.138;2023-03-05T04:42:23;3.70;99.90
37646;DHT22;23489;49.600;6.138;2023-03-05T04:44:49;3.70;99.90
37646;DHT22;23489;49.600;6.138;2023-03-05T04:47:15;3.70;99.90
37646;DHT22;23489;49.600;6.138;2023-03-05T04:49:41;3.60;99.90
37646;DHT22;23489;49.600;6.138;2023-03-05T04:52:07;3.60;99.90
37646;DHT22;23489;49.600;6.138;2023-03-05T04:54:33;3.60;99.90
37646;DHT22;23489;49.600;6.138;2023-03-05T04:56:58;3.60;99.90
37646;DHT22;23489;49.600;6.138;2023-03-05T04:59:24;3.60;99.90
37646;DHT22;23489;49.600;6.138;2023-03-05T05:01:49;3.60;99.90
37646;DHT22;23489;49.600;6.138;2023-03-05T05:04:15;3.60;99.90
37646;DHT22;23489;49.600;6.138;2023-03-05T05:06:41;3.60;99.90
37646;DHT22;23489;49.600;6.138;2023-03-05T05:09:06;3.50;99.90
37646;DHT22;23489;49.600;6.138;2023-03-05T05:11:32;3.50;99.90
37646;DHT22;23489;49.600;6.138;2023-03-05T05:13:57;3.50;99.90
37646;DHT22;23489;49.600;6.138;2023-03-05T05:16:23;3.50;99.90
37646;DHT22;23489;49.600;6.138;2023-03-05T05:18:49;3.50;99.90
37646;DHT22;23489;49.600;6.138;2023-03-05T05:21:15;3.50;99.90
37646;DHT22;23489;49.600;6.138;2023-03-05T05:23:43;3.50;99.90
37646;DHT22;23489;49.600;6.138;2023-03-05T05:26:09;3.50;99.90
37646;DHT22;23489;49.600;6.138;2023-03-05T05:28:39;3.50;99.90
37646;DHT22;23489;49.600;6.138;2023-03-05T05:31:08;3.50;99.90
37646;DHT22;23489;49.600;6.138;2023-03-05T05:33:34;3.50;99.90
37646;DHT22;23489;49.600;6.138;2023-03-05T05:36:05;3.50;99.90
37646;DHT22;23489;49.600;6.138;2023-03-05T05:38:31;3.50;99.90
37646;DHT22;23489;49.600;6.138;2023-03-05T05:41:08;3.50;99.90
37646;DHT22;23489;49.600;6.138;2023-03-05T05:43:34;3.50;99.90
37646;DHT22;23489;49.600;6.138;2023-03-05T05:46:05;3.50;99.90
37646;DHT22;23489;49.600;6.138;2023-03-05T05:48:33;3.50;99.90
37646;DHT22;23489;49.600;6.138;2023-03-05T05:51:00;3.50;99.90
37646;DHT22;23489;49.600;6.138;2023-03-05T05:53:29;3.50;99.90
37646;DHT22;23489;49.600;6.138;2023-03-05T05:55:54;3.40;99.90
37646;DHT22;23489;49.600;6.138;2023-03-05T05:58:20;3.50;99.90
37646;DHT22;23489;49.600;6.138;2023-03-05T06:00:46;3.50;99.90
37646;DHT22;23489;49.600;6.138;2023-03-05T06:03:11;3.50;99.90
37646;DHT22;23489;49.600;6.138;2023-03-05T06:05:37;3.50;99.90
37646;DHT22;23489;49.600;6.138;2023-03-05T06:08:03;3.50;99.90
37646;DHT22;23489;49.600;6.138;2023-03-05T06:10:28;3.40;99.90
37646;DHT22;23489;49.600;6.138;2023-03-05T06:12:54;3.40;99.90
37646;DHT22;23489;49.600;6.138;2023-03-05T06:15:20;3.40;99.90
37646;DHT22;23489;49.600;6.138;2023-03-05T06:17:45;3.40;99.90
37646;DHT22;23489;49.600;6.138;2023-03-05T06:20:12;3.50;99.90
37646;DHT22;23489;49.600;6.138;2023-03-05T06:22:38;3.50;99.90
37646;DHT22;23489;49.600;6.138;2023-03-05T06:25:06;3.50;99.90
37646;DHT22;23489;49.600;6.138;2023-03-05T06:27:33;3.50;99.90
37646;DHT22;23489;49.600;6.138;2023-03-05T06:29:59;3.50;99.90
37646;DHT22;23489;49.600;6.138;2023-03-05T06:32:25;3.50;99.90
37646;DHT22;23489;49.600;6.138;2023-03-05T06:34:51;3.50;99.90
37646;DHT22;23489;49.600;6.138;2023-03-05T06:37:16;3.50;99.90
37646;DHT22;23489;49.600;6.138;2023-03-05T06:39:42;3.50;99.90
37646;DHT22;23489;49.600;6.138;2023-03-05T06:42:08;3.50;99.90
37646;DHT22;23489;49.600;6.138;2023-03-05T06:44:37;3.40;99.90
37646;DHT22;23489;49.600;6.138;2023-03-05T06:47:04;3.40;99.90
37646;DHT22;23489;49.600;6.138;2023-03-05T06:49:30;3.40;99.90
37646;DHT22;23489;49.600;6.138;2023-03-05T06:51:55;3.40;99.90
37646;DHT22;23489;49.600;6.138;2023-03-05T06:54:21;3.50;99.90
37646;DHT22;23489;49.600;6.138;2023-03-05T06:56:47;3.50;99.90
37646;DHT22;23489;49.600;6.138;2023-03-05T06:59:15;3.50;99.90
37646;DHT22;23489;49.600;6.138;2023-03-05T07:01:42;3.50;99.90
37646;DHT22;23489;49.600;6.138;2023-03-05T07:04:08;3.50;99.90
37646;DHT22;23489;49.600;6.138;2023-03-05T07:06:35;3.50;99.90
37646;DHT22;23489;49.600;6.138;2023-03-05T07:09:04;3.60;99.90
37646;DHT22;23489;49.600;6.138;2023-03-05T07:11:30;3.60;99.90
37646;DHT22;23489;49.600;6.138;2023-03-05T07:13:56;3.60;99.90
37646;DHT22;23489;49.600;6.138;2023-03-05T07:16:25;3.60;99.90
37646;DHT22;23489;49.600;6.138;2023-03-05T07:18:51;3.60;99.90
37646;DHT22;23489;49.600;6.138;2023-03-05T07:21:20;3.60;99.90
37646;DHT22;23489;49.600;6.138;2023-03-05T07:23:46;3.60;99.90
37646;DHT22;23489;49.600;6.138;2023-03-05T07:26:13;3.60;99.90
37646;DHT22;23489;49.600;6.138;2023-03-05T07:28:39;3.60;99.90
37646;DHT22;23489;49.600;6.138;2023-03-05T07:31:07;3.60;99.90
37646;DHT22;23489;49.600;6.138;2023-03-05T07:33:33;3.60;99.90
37646;DHT22;23489;49.600;6.138;2023-03-05T07:35:59;3.60;99.90
37646;DHT22;23489;49.600;6.138;2023-03-05T07:38:26;3.60;99.90
37646;DHT22;23489;49.600;6.138;2023-03-05T07:40:52;3.60;99.90
37646;DHT22;23489;49.600;6.138;2023-03-05T07:43:17;3.70;99.90
37646;DHT22;23489;49.600;6.138;2023-03-05T07:45:44;3.70;99.90
37646;DHT22;23489;49.600;6.138;2023-03-05T07:48:17;3.70;99.90
37646;DHT22;23489;49.600;6.138;2023-03-05T07:50:45;3.70;99.90
37646;DHT22;23489;49.600;6.138;2023-03-05T07:53:11;3.60;99.90
37646;DHT22;23489;49.600;6.138;2023-03-05T07:55:44;3.60;99.90
37646;DHT22;23489;49.600;6.138;2023-03-05T07:58:10;3.70;99.90
37646;DHT22;23489;49.600;6.138;2023-03-05T08:00:36;3.70;99.90
37646;DHT22;23489;49.600;6.138;2023-03-05T08:03:02;3.70;99.90
37646;DHT22;23489;49.600;6.138;2023-03-05T08:05:28;3.70;99.90
37646;DHT22;23489;49.600;6.138;2023-03-05T08:07:53;3.70;99.90
37646;DHT22;23489;49.600;6.138;2023-03-05T08:10:19;3.80;99.90
37646;DHT22;23489;49.600;6.138;2023-03-05T08:12:45;3.80;99.90
37646;DHT22;23489;49.600;6.138;2023-03-05T08:15:10;3.80;99.90
37646;DHT22;23489;49.600;6.138;2023-03-05T08:17:36;3.80;99.90
37646;DHT22;23489;49.600;6.138;2023-03-05T08:20:02;3.80;99.90
37646;DHT22;23489;49.600;6.138;2023-03-05T08:22:32;3.70;99.90
37646;DHT22;23489;49.600;6.138;2023-03-05T08:24:59;3.70;99.90
37646;DHT22;23489;49.600;6.138;2023-03-05T08:27:25;3.80;99.90
37646;DHT22;23489;49.600;6.138;2023-03-05T08:29:51;3.90;99.90
37646;DHT22;23489;49.600;6.138;2023-03-05T08:32:17;3.90;99.90
37646;DHT22;23489;49.600;6.138;2023-03-05T08:34:42;3.90;99.90
37646;DHT22;23489;49.600;6.138;2023-03-05T08:37:08;4.00;99.90
37646;DHT22;23489;49.600;6.138;2023-03-05T08:39:35;4.10;99.90
37646;DHT22;23489;49.600;6.138;2023-03-05T08:42:01;4.00;99.90
37646;DHT22;23489;49.600;6.138;2023-03-05T08:44:27;4.00;99.90
37646;DHT22;23489;49.600;6.138;2023-03-05T08:46:52;4.10;99.90
37646;DHT22;23489;49.600;6.138;2023-03-05T08:49:18;4.30;99.90
37646;DHT22;23489;49.600;6.138;2023-03-05T08:51:43;4.40;99.90
37646;DHT22;23489;49.600;6.138;2023-03-05T08:54:09;4.40;99.90
37646;DHT22;23489;49.600;6.138;2023-03-05T08:56:35;4.60;99.90
37646;DHT22;23489;49.600;6.138;2023-03-05T08:59:02;4.50;99.90
37646;DHT22;23489;49.600;6.138;2023-03-05T09:01:28;4.60;99.90
37646;DHT22;23489;49.600;6.138;2023-03-05T09:03:55;4.80;99.90
37646;DHT22;23489;49.600;6.138;2023-03-05T09:06:21;4.80;99.90
37646;DHT22;23489;49.600;6.138;2023-03-05T09:08:46;4.80;99.90
37646;DHT22;23489;49.600;6.138;2023-03-05T09:11:12;4.80;99.90
37646;DHT22;23489;49.600;6.138;2023-03-05T09:13:38;4.70;99.90
37646;DHT22;23489;49.600;6.138;2023-03-05T09:16:07;4.60;99.90
37646;DHT22;23489;49.600;6.138;2023-03-05T09:18:33;4.60;99.90
37646;DHT22;23489;49.600;6.138;2023-03-05T09:21:05;4.70;99.90
37646;DHT22;23489;49.600;6.138;2023-03-05T09:23:31;4.70;99.90
37646;DHT22;23489;49.600;6.138;2023-03-05T09:25:57;4.60;99.90
37646;DHT22;23489;49.600;6.138;2023-03-05T09:28:23;4.50;99.90
37646;DHT22;23489;49.600;6.138;2023-03-05T09:30:48;4.60;99.90
37646;DHT22;23489;49.600;6.138;2023-03-05T09:33:14;4.80;99.90
37646;DHT22;23489;49.600;6.138;2023-03-05T09:35:40;4.80;99.90
37646;DHT22;23489;49.600;6.138;2023-03-05T09:38:05;4.90;99.90
37646;DHT22;23489;49.600;6.138;2023-03-05T09:46:33;5.00;99.90
37646;DHT22;23489;49.600;6.138;2023-03-05T09:51:45;5.20;99.90
37646;DHT22;23489;49.600;6.138;2023-03-05T09:54:20;5.20;99.90
37646;DHT22;23489;49.600;6.138;2023-03-05T09:56:55;5.00;99.90
37646;DHT22;23489;49.600;6.138;2023-03-05T09:59:34;5.10;99.90
37646;DHT22;23489;49.600;6.138;2023-03-05T10:02:46;5.30;99.90
37646;DHT22;23489;49.600;6.138;2023-03-05T10:07:38;5.40;99.90
37646;DHT22;23489;49.600;6.138;2023-03-05T10:10:11;5.40;99.90
37646;DHT22;23489;49.600;6.138;2023-03-05T10:12:41;5.40;99.90
37646;DHT22;23489;49.600;6.138;2023-03-05T10:15:38;5.50;99.90
37646;DHT22;23489;49.600;6.138;2023-03-05T10:18:18;5.40;99.90
37646;DHT22;23489;49.600;6.138;2023-03-05T10:26:55;5.40;99.90
37646;DHT22;23489;49.600;6.138;2023-03-05T10:37:28;5.30;99.90
37646;DHT22;23489;49.600;6.138;2023-03-05T10:45:28;5.10;99.90
37646;DHT22;23489;49.600;6.138;2023-03-05T10:48:11;4.90;99.90
37646;DHT22;23489;49.600;6.138;2023-03-05T10:50:43;4.90;99.90
37646;DHT22;23489;49.600;6.138;2023-03-05T10:53:33;5.00;99.90
37646;DHT22;23489;49.600;6.138;2023-03-05T10:56:01;5.10;99.90
37646;DHT22;23489;49.600;6.138;2023-03-05T10:58:28;4.90;99.90
37646;DHT22;23489;49.600;6.138;2023-03-05T11:12:14;5.20;99.90
37646;DHT22;23489;49.600;6.138;2023-03-05T11:15:00;5.20;99.90
37646;DHT22;23489;49.600;6.138;2023-03-05T11:17:32;5.30;99.90
37646;DHT22;23489;49.600;6.138;2023-03-05T11:25:35;5.50;99.90
37646;DHT22;23489;49.600;6.138;2023-03-05T11:28:17;5.50;99.90
37646;DHT22;23489;49.600;6.138;2023-03-05T11:31:35;5.60;99.90
37646;DHT22;23489;49.600;6.138;2023-03-05T11:34:04;5.70;99.90
37646;DHT22;23489;49.600;6.138;2023-03-05T11:36:31;5.70;99.90
37646;DHT22;23489;49.600;6.138;2023-03-05T11:41:39;5.70;99.90
37646;DHT22;23489;49.600;6.138;2023-03-05T11:44:14;5.80;99.90
37646;DHT22;23489;49.600;6.138;2023-03-05T11:46:43;5.70;99.90
37646;DHT22;23489;49.600;6.138;2023-03-05T11:49:20;5.80;99.90
37646;DHT22;23489;49.600;6.138;2023-03-05T11:57:13;6.10;99.90
37646;DHT22;23489;49.600;6.138;2023-03-05T11:59:40;6.10;99.90
37646;DHT22;23489;49.600;6.138;2023-03-05T12:02:16;6.00;99.90
37646;DHT22;23489;49.600;6.138;2023-03-05T12:04:42;6.00;99.90
37646;DHT22;23489;49.600;6.138;2023-03-05T12:07:12;5.90;99.90
37646;DHT22;23489;49.600;6.138;2023-03-05T12:09:43;5.90;99.90
37646;DHT22;23489;49.600;6.138;2023-03-05T12:12:38;5.70;99.90
37646;DHT22;23489;49.600;6.138;2023-03-05T12:17:43;5.60;99.90
37646;DHT22;23489;49.600;6.138;2023-03-05T12:20:12;5.60;99.90
37646;DHT22;23489;49.600;6.138;2023-03-05T12:22:40;5.50;99.90
37646;DHT22;23489;49.600;6.138;2023-03-05T12:27:49;5.40;99.90
37646;DHT22;23489;49.600;6.138;2023-03-05T12:30:52;5.30;99.90
37646;DHT22;23489;49.600;6.138;2023-03-05T12:33:38;5.60;99.90
37646;DHT22;23489;49.600;6.138;2023-03-05T12:38:43;5.80;99.90
37646;DHT22;23489;49.600;6.138;2023-03-05T12:46:37;6.60;99.90
37646;DHT22;23489;49.600;6.138;2023-03-05T12:51:55;7.00;99.90
37646;DHT22;23489;49.600;6.138;2023-03-05T12:54:35;6.80;99.90
37646;DHT22;23489;49.600;6.138;2023-03-05T12:57:24;6.80;99.90
37646;DHT22;23489;49.600;6.138;2023-03-05T13:00:03;7.10;99.90
37646;DHT22;23489;49.600;6.138;2023-03-05T13:02:44;7.30;99.90
37646;DHT22;23489;49.600;6.138;2023-03-05T13:05:20;7.40;99.90
37646;DHT22;23489;49.600;6.138;2023-03-05T13:07:48;7.10;99.90
37646;DHT22;23489;49.600;6.138;2023-03-05T13:10:26;6.60;99.90
37646;DHT22;23489;49.600;6.138;2023-03-05T13:12:54;6.80;99.90
37646;DHT22;23489;49.600;6.138;2023-03-05T13:15:22;6.70;99.90
37646;DHT22;23489;49.600;6.138;2023-03-05T13:17:59;6.50;99.90
37646;DHT22;23489;49.600;6.138;2023-03-05T13:20:38;6.70;99.90
37646;DHT22;23489;49.600;6.138;2023-03-05T13:23:14;6.40;99.90
37646;DHT22;23489;49.600;6.138;2023-03-05T13:25:42;6.10;99.90
37646;DHT22;23489;49.600;6.138;2023-03-05T13:28:13;6.10;99.90
37646;DHT22;23489;49.600;6.138;2023-03-05T13:31:29;6.00;99.90
37646;DHT22;23489;49.600;6.138;2023-03-05T13:33:36;6.10;99.90
37646;DHT22;23489;49.600;6.138;2023-03-05T13:36:03;6.30;99.90
37646;DHT22;23489;49.600;6.138;2023-03-05T13:38:33;6.40;99.90
37646;DHT22;23489;49.600;6.138;2023-03-05T13:41:21;6.30;99.90
37646;DHT22;23489;49.600;6.138;2023-03-05T13:43:53;6.50;99.90
37646;DHT22;23489;49.600;6.138;2023-03-05T13:48:48;6.00;99.90
37646;DHT22;23489;49.600;6.138;2023-03-05T13:51:15;5.90;99.90
37646;DHT22;23489;49.600;6.138;2023-03-05T13:53:42;5.90;99.90
37646;DHT22;23489;49.600;6.138;2023-03-05T13:56:17;5.80;99.90
37646;DHT22;23489;49.600;6.138;2023-03-05T13:58:50;5.90;99.90
37646;DHT22;23489;49.600;6.138;2023-03-05T14:03:56;6.00;99.90
37646;DHT22;23489;49.600;6.138;2023-03-05T14:06:24;6.00;99.90
37646;DHT22;23489;49.600;6.138;2023-03-05T14:08:55;5.80;99.90
37646;DHT22;23489;49.600;6.138;2023-03-05T14:11:23;5.80;99.90
37646;DHT22;23489;49.600;6.138;2023-03-05T14:13:59;5.70;99.90
37646;DHT22;23489;49.600;6.138;2023-03-05T14:16:27;5.60;99.90
37646;DHT22;23489;49.600;6.138;2023-03-05T14:18:59;5.70;99.90
37646;DHT22;23489;49.600;6.138;2023-03-05T14:21:41;5.70;99.90
37646;DHT22;23489;49.600;6.138;2023-03-05T14:24:19;5.70;99.90
37646;DHT22;23489;49.600;6.138;2023-03-05T14:26:57;5.80;99.90
37646;DHT22;23489;49.600;6.138;2023-03-05T14:29:26;5.80;99.90
37646;DHT22;23489;49.600;6.138;2023-03-05T14:32:05;5.80;99.90
37646;DHT22;23489;49.600;6.138;2023-03-05T14:34:40;5.80;99.90
37646;DHT22;23489;49.600;6.138;2023-03-05T14:37:39;5.90;99.90
37646;DHT22;23489;49.600;6.138;2023-03-05T14:43:00;6.20;99.90
37646;DHT22;23489;49.600;6.138;2023-03-05T14:47:58;6.60;99.90
37646;DHT22;23489;49.600;6.138;2023-03-05T14:50:27;6.50;99.90
37646;DHT22;23489;49.600;6.138;2023-03-05T14:52:55;6.40;99.90
37646;DHT22;23489;49.600;6.138;2023-03-05T14:55:25;6.30;99.90
37646;DHT22;23489;49.600;6.138;2023-03-05T14:57:55;6.50;99.90
37646;DHT22;23489;49.600;6.138;2023-03-05T15:00:26;6.70;99.90
37646;DHT22;23489;49.600;6.138;2023-03-05T15:02:52;6.80;99.90
37646;DHT22;23489;49.600;6.138;2023-03-05T15:05:18;6.90;99.90
37646;DHT22;23489;49.600;6.138;2023-03-05T15:07:44;6.90;99.90
37646;DHT22;23489;49.600;6.138;2023-03-05T15:10:15;6.90;99.90
37646;DHT22;23489;49.600;6.138;2023-03-05T15:12:41;6.90;99.90
37646;DHT22;23489;49.600;6.138;2023-03-05T15:15:07;6.90;99.90
37646;DHT22;23489;49.600;6.138;2023-03-05T15:17:35;6.90;99.90
37646;DHT22;23489;49.600;6.138;2023-03-05T15:20:03;6.80;99.90
37646;DHT22;23489;49.600;6.138;2023-03-05T15:22:32;6.80;99.90
37646;DHT22;23489;49.600;6.138;2023-03-05T15:24:58;6.70;99.90
37646;DHT22;23489;49.600;6.138;2023-03-05T15:27:23;6.50;99.90
37646;DHT22;23489;49.600;6.138;2023-03-05T15:29:49;6.50;99.90
37646;DHT22;23489;49.600;6.138;2023-03-05T15:32:15;6.50;99.90
37646;DHT22;23489;49.600;6.138;2023-03-05T15:34:41;6.40;99.90
37646;DHT22;23489;49.600;6.138;2023-03-05T15:37:07;6.40;99.90
37646;DHT22;23489;49.600;6.138;2023-03-05T15:39:33;6.30;99.90
37646;DHT22;23489;49.600;6.138;2023-03-05T15:41:58;6.20;99.90
37646;DHT22;23489;49.600;6.138;2023-03-05T15:44:24;6.00;99.90
37646;DHT22;23489;49.600;6.138;2023-03-05T15:46:50;5.80;99.90
37646;DHT22;23489;49.600;6.138;2023-03-05T15:49:16;5.70;99.90
37646;DHT22;23489;49.600;6.138;2023-03-05T15:51:42;5.70;99.90
37646;DHT22;23489;49.600;6.138;2023-03-05T15:54:07;5.60;99.90
37646;DHT22;23489;49.600;6.138;2023-03-05T15:56:33;5.70;99.90
37646;DHT22;23489;49.600;6.138;2023-03-05T15:58:59;5.80;99.90
37646;DHT22;23489;49.600;6.138;2023-03-05T16:01:26;5.80;99.90
37646;DHT22;23489;49.600;6.138;2023-03-05T16:03:51;5.60;99.90
37646;DHT22;23489;49.600;6.138;2023-03-05T16:06:18;5.50;99.90
37646;DHT22;23489;49.600;6.138;2023-03-05T16:08:48;5.60;99.90
37646;DHT22;23489;49.600;6.138;2023-03-05T16:11:14;5.60;99.90
37646;DHT22;23489;49.600;6.138;2023-03-05T16:13:40;5.50;99.90
37646;DHT22;23489;49.600;6.138;2023-03-05T16:16:07;5.40;99.90
37646;DHT22;23489;49.600;6.138;2023-03-05T16:18:36;5.30;99.90
37646;DHT22;23489;49.600;6.138;2023-03-05T16:21:03;5.30;99.90
37646;DHT22;23489;49.600;6.138;2023-03-05T16:23:29;5.30;99.90
37646;DHT22;23489;49.600;6.138;2023-03-05T16:25:55;5.30;99.90
37646;DHT22;23489;49.600;6.138;2023-03-05T16:28:20;5.30;99.90
37646;DHT22;23489;49.600;6.138;2023-03-05T16:30:54;5.20;99.90
37646;DHT22;23489;49.600;6.138;2023-03-05T16:33:20;5.10;99.90
37646;DHT22;23489;49.600;6.138;2023-03-05T16:35:46;5.10;99.90
37646;DHT22;23489;49.600;6.138;2023-03-05T16:38:12;5.10;99.90
37646;DHT22;23489;49.600;6.138;2023-03-05T16:40:38;5.10;99.90
37646;DHT22;23489;49.600;6.138;2023-03-05T16:43:04;5.20;99.90
37646;DHT22;23489;49.600;6.138;2023-03-05T16:45:30;5.20;99.90
37646;DHT22;23489;49.600;6.138;2023-03-05T16:47:56;5.20;99.90
37646;DHT22;23489;49.600;6.138;2023-03-05T16:50:22;5.10;99.90
37646;DHT22;23489;49.600;6.138;2023-03-05T16:52:47;5.10;99.90
37646;DHT22;23489;49.600;6.138;2023-03-05T16:55:13;5.10;99.90
37646;DHT22;23489;49.600;6.138;2023-03-05T16:57:39;5.10;99.90
37646;DHT22;23489;49.600;6.138;2023-03-05T17:00:06;5.00;99.90
37646;DHT22;23489;49.600;6.138;2023-03-05T17:02:33;5.00;99.90
37646;DHT22;23489;49.600;6.138;2023-03-05T17:04:59;5.00;99.90
37646;DHT22;23489;49.600;6.138;2023-03-05T17:07:26;5.00;99.90
37646;DHT22;23489;49.600;6.138;2023-03-05T17:09:52;5.00;99.90
37646;DHT22;23489;49.600;6.138;2023-03-05T17:12:19;5.00;99.90
37646;DHT22;23489;49.600;6.138;2023-03-05T17:14:44;5.00;99.90
37646;DHT22;23489;49.600;6.138;2023-03-05T17:17:10;4.90;99.90